sensor_id;sensor_type;location;lat;lon;timestamp;pressure;altitude;pressure_sealevel;temperature;humidity
71043;BME280;58696;52.134;5.500;2024-01-15T00:01:43;100291.41;;;0.55;100.00
71043;BME280;58696;52.134;5.500;2024-01-15T00:04:13;100289.94;;;0.52;100.00
71043;BME280;58696;52.134;5.500;2024-01-15T00:06:40;100290.31;;;0.47;100.00
71043;BME280;58696;52.134;5.500;2024-01-15T00:09:11;100287.13;;;0.45;100.00
71043;BME280;58696;52.134;5.500;2024-01-15T00:11:40;100286.59;;;0.42;100.00
71043;BME280;58696;52.134;5.500;2024-01-15T00:14:09;100283.25;;;0.41;100.00
71043;BME280;58696;52.134;5.500;2024-01-15T00:16:40;100279.13;;;0.40;100.00
71043;BME280;58696;52.134;5.500;2024-01-15T00:19:09;100268.47;;;0.37;100.00
71043;BME280;58696;52.134;5.500;2024-01-15T00:21:36;100272.22;;;0.33;100.00
71043;BME280;58696;52.134;5.500;2024-01-15T00:24:05;100269.78;;;0.31;100.00
71043;BME280;58696;52.134;5.500;2024-01-15T00:26:32;100265.03;;;0.28;100.00
71043;BME280;58696;52.134;5.500;2024-01-15T00:29:00;100258.47;;;0.25;100.00
71043;BME280;58696;52.134;5.500;2024-01-15T00:31:32;100262.06;;;0.23;100.00
71043;BME280;58696;52.134;5.500;2024-01-15T00:34:01;100254.75;;;0.20;100.00
71043;BME280;58696;52.134;5.500;2024-01-15T00:36:28;100263.41;;;0.17;100.00
71043;BME280;58696;52.134;5.500;2024-01-15T00:38:55;100260.97;;;0.16;100.00
71043;BME280;58696;52.134;5.500;2024-01-15T00:41:22;100249.41;;;0.13;100.00
71043;BME280;58696;52.134;5.500;2024-01-15T00:43:51;100239.44;;;0.12;100.00
71043;BME280;58696;52.134;5.500;2024-01-15T00:46:17;100239.69;;;0.09;100.00
71043;BME280;58696;52.134;5.500;2024-01-15T00:48:44;100238.09;;;0.08;100.00
71043;BME280;58696;52.134;5.500;2024-01-15T00:51:11;100227.44;;;0.04;100.00
71043;BME280;58696;52.134;5.500;2024-01-15T00:53:39;100221.88;;;0.01;100.00
71043;BME280;58696;52.134;5.500;2024-01-15T00:56:09;100231.28;;;-0.02;100.00
71043;BME280;58696;52.134;5.500;2024-01-15T00:58:35;100236.47;;;-0.03;100.00
71043;BME280;58696;52.134;5.500;2024-01-15T01:01:02;100232.59;;;-0.07;100.00
71043;BME280;58696;52.134;5.500;2024-01-15T01:03:33;100235.25;;;-0.09;100.00
71043;BME280;58696;52.134;5.500;2024-01-15T01:06:02;100235.50;;;-0.12;100.00
71043;BME280;58696;52.134;5.500;2024-01-15T01:08:31;100232.06;;;-0.11;100.00
71043;BME280;58696;52.134;5.500;2024-01-15T01:10:58;100228.63;;;-0.10;100.00
71043;BME280;58696;52.134;5.500;2024-01-15T01:13:24;100228.06;;;-0.13;100.00
71043;BME280;58696;52.134;5.500;2024-01-15T01:15:51;100226.47;;;-0.14;100.00
71043;BME280;58696;52.134;5.500;2024-01-15T01:18:18;100211.19;;;-0.13;100.00
71043;BME280;58696;52.134;5.500;2024-01-15T01:20:45;100214.63;;;-0.14;100.00
71043;BME280;58696;52.134;5.500;2024-01-15T01:23:13;100219.13;;;-0.17;100.00
71043;BME280;58696;52.134;5.500;2024-01-15T01:25:40;100224.72;;;-0.14;100.00
71043;BME280;58696;52.134;5.500;2024-01-15T01:28:07;100219.13;;;-0.17;100.00
71043;BME280;58696;52.134;5.500;2024-01-15T01:30:33;100222.84;;;-0.21;100.00
71043;BME280;58696;52.134;5.500;2024-01-15T01:33:00;100224.56;;;-0.22;100.00
71043;BME280;58696;52.134;5.500;2024-01-15T01:35:29;100221.22;;;-0.22;100.00
71043;BME280;58696;52.134;5.500;2024-01-15T01:37:55;100232.13;;;-0.22;100.00
71043;BME280;58696;52.134;5.500;2024-01-15T01:40:26;100229.59;;;-0.22;100.00
71043;BME280;58696;52.134;5.500;2024-01-15T01:42:53;100230.28;;;-0.20;100.00
71043;BME280;58696;52.134;5.500;2024-01-15T01:45:24;100223.53;;;-0.19;100.00
71043;BME280;58696;52.134;5.500;2024-01-15T01:47:51;100229.50;;;-0.20;100.00
71043;BME280;58696;52.134;5.500;2024-01-15T01:50:21;100225.25;;;-0.20;100.00
71043;BME280;58696;52.134;5.500;2024-01-15T01:52:48;100220.56;;;-0.24;100.00
71043;BME280;58696;52.134;5.500;2024-01-15T01:55:15;100218.47;;;-0.19;100.00
71043;BME280;58696;52.134;5.500;2024-01-15T01:57:42;100210.63;;;-0.26;100.00
71043;BME280;58696;52.134;5.500;2024-01-15T02:00:12;100205.66;;;-0.28;100.00
71043;BME280;58696;52.134;5.500;2024-01-15T02:02:42;100212.97;;;-0.34;100.00
71043;BME280;58696;52.134;5.500;2024-01-15T02:05:12;100222.13;;;-0.33;100.00
71043;BME280;58696;52.134;5.500;2024-01-15T02:07:46;100213.66;;;-0.32;100.00
71043;BME280;58696;52.134;5.500;2024-01-15T02:10:15;100213.00;;;-0.24;100.00
71043;BME280;58696;52.134;5.500;2024-01-15T02:12:43;100224.88;;;-0.15;100.00
71043;BME280;58696;52.134;5.500;2024-01-15T02:15:12;100240.75;;;0.06;100.00
71043;BME280;58696;52.134;5.500;2024-01-15T02:18:02;100243.72;;;0.31;100.00
71043;BME280;58696;52.134;5.500;2024-01-15T02:20:32;100246.94;;;0.42;100.00
71043;BME280;58696;52.134;5.500;2024-01-15T02:23:16;100227.25;;;0.46;100.00
71043;BME280;58696;52.134;5.500;2024-01-15T02:25:45;100219.53;;;0.47;100.00
71043;BME280;58696;52.134;5.500;2024-01-15T02:28:17;100210.78;;;0.51;100.00
71043;BME280;58696;52.134;5.500;2024-01-15T02:30:44;100216.63;;;0.52;100.00
71043;BME280;58696;52.134;5.500;2024-01-15T02:33:13;100213.44;;;0.50;100.00
71043;BME280;58696;52.134;5.500;2024-01-15T02:35:40;100223.81;;;0.47;100.00
71043;BME280;58696;52.134;5.500;2024-01-15T02:38:07;100222.47;;;0.43;100.00
71043;BME280;58696;52.134;5.500;2024-01-15T02:40:35;100215.56;;;0.45;100.00
71043;BME280;58696;52.134;5.500;2024-01-15T02:43:02;100217.94;;;0.46;100.00
71043;BME280;58696;52.134;5.500;2024-01-15T02:45:31;100215.28;;;0.48;100.00
71043;BME280;58696;52.134;5.500;2024-01-15T02:47:57;100209.31;;;0.49;100.00
71043;BME280;58696;52.134;5.500;2024-01-15T02:50:26;100208.09;;;0.53;100.00
71043;BME280;58696;52.134;5.500;2024-01-15T02:52:56;100205.19;;;0.58;100.00
71043;BME280;58696;52.134;5.500;2024-01-15T02:55:22;100211.44;;;0.63;100.00
71043;BME280;58696;52.134;5.500;2024-01-15T02:57:51;100210.25;;;0.67;100.00
71043;BME280;58696;52.134;5.500;2024-01-15T03:00:18;100212.50;;;0.70;100.00
71043;BME280;58696;52.134;5.500;2024-01-15T03:02:45;100215.16;;;0.69;100.00
71043;BME280;58696;52.134;5.500;2024-01-15T03:05:14;100205.97;;;0.68;100.00
71043;BME280;58696;52.134;5.500;2024-01-15T03:07:41;100206.13;;;0.66;100.00
71043;BME280;58696;52.134;5.500;2024-01-15T03:10:08;100205.97;;;0.68;100.00
71043;BME280;58696;52.134;5.500;2024-01-15T03:12:37;100199.47;;;0.65;100.00
71043;BME280;58696;52.134;5.500;2024-01-15T03:15:04;100196.41;;;0.62;100.00
71043;BME280;58696;52.134;5.500;2024-01-15T03:17:31;100203.31;;;0.60;100.00
71043;BME280;58696;52.134;5.500;2024-01-15T03:20:00;100198.53;;;0.66;100.00
71043;BME280;58696;52.134;5.500;2024-01-15T03:22:27;100204.25;;;0.68;100.00
71043;BME280;58696;52.134;5.500;2024-01-15T03:24:54;100210.78;;;0.71;100.00
71043;BME280;58696;52.134;5.500;2024-01-15T03:27:23;100211.59;;;0.71;100.00
71043;BME280;58696;52.134;5.500;2024-01-15T03:29:49;100213.03;;;0.74;100.00
71043;BME280;58696;52.134;5.500;2024-01-15T03:32:18;100219.81;;;0.73;100.00
71043;BME280;58696;52.134;5.500;2024-01-15T03:34:45;100213.19;;;0.72;100.00
71043;BME280;58696;52.134;5.500;2024-01-15T03:37:14;100238.19;;;0.75;100.00
71043;BME280;58696;52.134;5.500;2024-01-15T03:39:40;100245.75;;;0.75;100.00
71043;BME280;58696;52.134;5.500;2024-01-15T03:42:07;100235.53;;;0.77;100.00
71043;BME280;58696;52.134;5.500;2024-01-15T03:44:33;100224.19;;;0.81;100.00
71043;BME280;58696;52.134;5.500;2024-01-15T03:47:02;100223.16;;;0.84;100.00
71043;BME280;58696;52.134;5.500;2024-01-15T03:49:29;100220.34;;;0.87;100.00
71043;BME280;58696;52.134;5.500;2024-01-15T03:51:58;100225.00;;;0.91;100.00
71043;BME280;58696;52.134;5.500;2024-01-15T03:54:27;100200.50;;;0.92;100.00
71043;BME280;58696;52.134;5.500;2024-01-15T03:56:56;100184.66;;;0.90;100.00
71043;BME280;58696;52.134;5.500;2024-01-15T03:59:23;100179.22;;;0.85;100.00
71043;BME280;58696;52.134;5.500;2024-01-15T04:01:51;100174.03;;;0.76;100.00
71043;BME280;58696;52.134;5.500;2024-01-15T04:04:17;100181.50;;;0.68;100.00
71043;BME280;58696;52.134;5.500;2024-01-15T04:06:44;100166.31;;;0.59;100.00
71043;BME280;58696;52.134;5.500;2024-01-15T04:09:12;100161.81;;;0.52;100.00
71043;BME280;58696;52.134;5.500;2024-01-15T04:11:42;100167.41;;;0.46;100.00
71043;BME280;58696;52.134;5.500;2024-01-15T04:14:09;100161.94;;;0.41;100.00
71043;BME280;58696;52.134;5.500;2024-01-15T04:16:39;100159.28;;;0.33;100.00
71043;BME280;58696;52.134;5.500;2024-01-15T04:19:05;100167.13;;;0.30;100.00
71043;BME280;58696;52.134;5.500;2024-01-15T04:21:32;100169.09;;;0.26;100.00
71043;BME280;58696;52.134;5.500;2024-01-15T04:24:01;100167.09;;;0.20;100.00
71043;BME280;58696;52.134;5.500;2024-01-15T04:26:33;100158.88;;;0.18;100.00
71043;BME280;58696;52.134;5.500;2024-01-15T04:29:02;100149.00;;;0.15;100.00
71043;BME280;58696;52.134;5.500;2024-01-15T04:31:29;100150.22;;;0.11;100.00
71043;BME280;58696;52.134;5.500;2024-01-15T04:33:56;100148.09;;;0.07;100.00
71043;BME280;58696;52.134;5.500;2024-01-15T04:36:22;100155.78;;;0.05;100.00
71043;BME280;58696;52.134;5.500;2024-01-15T04:38:49;100146.75;;;0.03;100.00
71043;BME280;58696;52.134;5.500;2024-01-15T04:41:16;100149.28;;;0.03;100.00
71043;BME280;58696;52.134;5.500;2024-01-15T04:43:48;100146.22;;;0.09;100.00
71043;BME280;58696;52.134;5.500;2024-01-15T04:46:15;100141.16;;;0.09;100.00
71043;BME280;58696;52.134;5.500;2024-01-15T04:48:42;100131.72;;;0.11;100.00
71043;BME280;58696;52.134;5.500;2024-01-15T04:51:09;100132.53;;;0.11;100.00
71043;BME280;58696;52.134;5.500;2024-01-15T04:53:36;100135.31;;;0.08;100.00
71043;BME280;58696;52.134;5.500;2024-01-15T04:56:05;100127.19;;;0.05;100.00
71043;BME280;58696;52.134;5.500;2024-01-15T04:58:31;100121.34;;;0.04;100.00
71043;BME280;58696;52.134;5.500;2024-01-15T05:01:03;100127.19;;;0.05;100.00
71043;BME280;58696;52.134;5.500;2024-01-15T05:03:34;100125.88;;;0.10;100.00
71043;BME280;58696;52.134;5.500;2024-01-15T05:06:03;100129.50;;;0.17;100.00
71043;BME280;58696;52.134;5.500;2024-01-15T05:08:30;100132.28;;;0.24;100.00
71043;BME280;58696;52.134;5.500;2024-01-15T05:10:57;100130.16;;;0.29;100.00
71043;BME280;58696;52.134;5.500;2024-01-15T05:13:25;100128.81;;;0.35;100.00
71043;BME280;58696;52.134;5.500;2024-01-15T05:15:54;100130.66;;;0.42;100.00
71043;BME280;58696;52.134;5.500;2024-01-15T05:18:21;100128.94;;;0.43;100.00
71043;BME280;58696;52.134;5.500;2024-01-15T05:20:50;100115.66;;;0.41;100.00
71043;BME280;58696;52.134;5.500;2024-01-15T05:23:19;100123.88;;;0.43;100.00
71043;BME280;58696;52.134;5.500;2024-01-15T05:25:48;100119.63;;;0.43;100.00
71043;BME280;58696;52.134;5.500;2024-01-15T05:28:14;100117.91;;;0.44;100.00
71043;BME280;58696;52.134;5.500;2024-01-15T05:30:43;100119.63;;;0.43;100.00
71043;BME280;58696;52.134;5.500;2024-01-15T05:33:10;100122.28;;;0.42;100.00
71043;BME280;58696;52.134;5.500;2024-01-15T05:35:39;100118.97;;;0.41;100.00
71043;BME280;58696;52.134;5.500;2024-01-15T05:38:06;100127.19;;;0.43;100.00
71043;BME280;58696;52.134;5.500;2024-01-15T05:40:37;100122.84;;;0.45;100.00
71043;BME280;58696;52.134;5.500;2024-01-15T05:43:04;100131.06;;;0.47;100.00
71043;BME280;58696;52.134;5.500;2024-01-15T05:45:30;100132.81;;;0.47;100.00
71043;BME280;58696;52.134;5.500;2024-01-15T05:47:57;100127.59;;;0.48;100.00
71043;BME280;58696;52.134;5.500;2024-01-15T05:50:24;100132.53;;;0.50;100.00
71043;BME280;58696;52.134;5.500;2024-01-15T05:52:53;100126.56;;;0.51;100.00
71043;BME280;58696;52.134;5.500;2024-01-15T05:55:19;100128.94;;;0.52;100.00
71043;BME280;58696;52.134;5.500;2024-01-15T05:57:46;100136.38;;;0.54;100.00
71043;BME280;58696;52.134;5.500;2024-01-15T06:00:13;100143.44;;;0.60;100.00
71043;BME280;58696;52.134;5.500;2024-01-15T06:02:40;100137.47;;;0.61;100.00
71043;BME280;58696;52.134;5.500;2024-01-15T06:05:07;100140.78;;;0.62;100.00
71043;BME280;58696;52.134;5.500;2024-01-15T06:07:34;100144.75;;;0.64;100.00
71043;BME280;58696;52.134;5.500;2024-01-15T06:10:01;100143.72;;;0.67;100.00
71043;BME280;58696;52.134;5.500;2024-01-15T06:12:30;100153.03;;;0.66;100.00
71043;BME280;58696;52.134;5.500;2024-01-15T06:15:02;100148.75;;;0.57;100.00
71043;BME280;58696;52.134;5.500;2024-01-15T06:17:29;100136.81;;;0.49;100.00
71043;BME280;58696;52.134;5.500;2024-01-15T06:19:55;100125.91;;;0.39;100.00
71043;BME280;58696;52.134;5.500;2024-01-15T06:22:26;100119.75;;;0.32;100.00
71043;BME280;58696;52.134;5.500;2024-01-15T06:24:56;100123.38;;;0.30;100.00
71043;BME280;58696;52.134;5.500;2024-01-15T06:27:24;100124.69;;;0.24;100.00
71043;BME280;58696;52.134;5.500;2024-01-15T06:29:53;100124.84;;;0.22;100.00
71043;BME280;58696;52.134;5.500;2024-01-15T06:32:22;100124.69;;;0.24;100.00
71043;BME280;58696;52.134;5.500;2024-01-15T06:34:51;100124.56;;;0.25;100.00
71043;BME280;58696;52.134;5.500;2024-01-15T06:37:17;100122.97;;;0.24;100.00
71043;BME280;58696;52.134;5.500;2024-01-15T06:39:49;100117.91;;;0.24;100.00
71043;BME280;58696;52.134;5.500;2024-01-15T06:42:18;100122.97;;;0.24;100.00
71043;BME280;58696;52.134;5.500;2024-01-15T06:44:45;100122.03;;;0.25;100.00
71043;BME280;58696;52.134;5.500;2024-01-15T06:47:11;100111.78;;;0.27;100.00
71043;BME280;58696;52.134;5.500;2024-01-15T06:49:38;100115.94;;;0.28;100.00
71043;BME280;58696;52.134;5.500;2024-01-15T06:52:05;100114.44;;;0.25;100.00
71043;BME280;58696;52.134;5.500;2024-01-15T06:54:32;100107.94;;;0.23;100.00
71043;BME280;58696;52.134;5.500;2024-01-15T06:56:58;100120.03;;;0.19;100.00
71043;BME280;58696;52.134;5.500;2024-01-15T06:59:25;100112.59;;;0.18;100.00
71043;BME280;58696;52.134;5.500;2024-01-15T07:01:56;100108.34;;;0.18;100.00
71043;BME280;58696;52.134;5.500;2024-01-15T07:04:26;100114.19;;;0.19;100.00
71043;BME280;58696;52.134;5.500;2024-01-15T07:06:52;100113.25;;;0.20;100.00
71043;BME280;58696;52.134;5.500;2024-01-15T07:09:19;100117.50;;;0.19;100.00
71043;BME280;58696;52.134;5.500;2024-01-15T07:11:50;100118.16;;;0.21;100.00
71043;BME280;58696;52.134;5.500;2024-01-15T07:14:17;100106.22;;;0.23;100.00
71043;BME280;58696;52.134;5.500;2024-01-15T07:16:46;100118.69;;;0.25;100.00
71043;BME280;58696;52.134;5.500;2024-01-15T07:19:14;100118.69;;;0.25;100.00
71043;BME280;58696;52.134;5.500;2024-01-15T07:21:43;100129.47;;;0.27;100.00
71043;BME280;58696;52.134;5.500;2024-01-15T07:24:12;100132.81;;;0.28;100.00
71043;BME280;58696;52.134;5.500;2024-01-15T07:26:41;100146.50;;;0.25;100.00
71043;BME280;58696;52.134;5.500;2024-01-15T07:29:07;100150.75;;;0.24;100.00
71043;BME280;58696;52.134;5.500;2024-01-15T07:31:34;100121.63;;;0.20;100.00
71043;BME280;58696;52.134;5.500;2024-01-15T07:34:01;100114.19;;;0.19;100.00
71043;BME280;58696;52.134;5.500;2024-01-15T07:36:32;100119.25;;;0.19;100.00
71043;BME280;58696;52.134;5.500;2024-01-15T07:38:59;100127.63;;;0.19;100.00
71043;BME280;58696;52.134;5.500;2024-01-15T07:41:28;100123.22;;;0.21;100.00
71043;BME280;58696;52.134;5.500;2024-01-15T07:43:57;100125.88;;;0.20;100.00
71043;BME280;58696;52.134;5.500;2024-01-15T07:46:24;100128.56;;;0.18;100.00
71043;BME280;58696;52.134;5.500;2024-01-15T07:48:53;100126.81;;;0.19;100.00
71043;BME280;58696;52.134;5.500;2024-01-15T07:51:28;100137.72;;;0.19;100.00
71043;BME280;58696;52.134;5.500;2024-01-15T07:53:57;100143.56;;;0.20;100.00
71043;BME280;58696;52.134;5.500;2024-01-15T07:56:25;100141.84;;;0.20;100.00
71043;BME280;58696;52.134;5.500;2024-01-15T07:58:56;100140.00;;;0.22;100.00
71043;BME280;58696;52.134;5.500;2024-01-15T08:01:22;100135.06;;;0.21;100.00
71043;BME280;58696;52.134;5.500;2024-01-15T08:03:49;100130.28;;;0.18;100.00
71043;BME280;58696;52.134;5.500;2024-01-15T08:06:19;100128.69;;;0.17;100.00
71043;BME280;58696;52.134;5.500;2024-01-15T08:08:47;100121.91;;;0.17;100.00
71043;BME280;58696;52.134;5.500;2024-01-15T08:11:16;100124.44;;;0.17;100.00
71043;BME280;58696;52.134;5.500;2024-01-15T08:13:43;100122.41;;;0.21;100.00
71043;BME280;58696;52.134;5.500;2024-01-15T08:16:09;100116.72;;;0.19;100.00
71043;BME280;58696;52.134;5.500;2024-01-15T08:18:38;100114.19;;;0.19;100.00
71043;BME280;58696;52.134;5.500;2024-01-15T08:21:07;100113.38;;;0.18;100.00
71043;BME280;58696;52.134;5.500;2024-01-15T08:23:34;100107.53;;;0.18;100.00
71043;BME280;58696;52.134;5.500;2024-01-15T08:26:01;100116.16;;;0.15;100.00
71043;BME280;58696;52.134;5.500;2024-01-15T08:28:27;100111.00;;;0.17;100.00
71043;BME280;58696;52.134;5.500;2024-01-15T08:30:54;100123.75;;;0.15;100.00
71043;BME280;58696;52.134;5.500;2024-01-15T08:33:23;100129.22;;;0.20;100.00
71043;BME280;58696;52.134;5.500;2024-01-15T08:35:52;100145.06;;;0.22;100.00
71043;BME280;58696;52.134;5.500;2024-01-15T08:38:19;100151.69;;;0.23;100.00
71043;BME280;58696;52.134;5.500;2024-01-15T08:40:46;100134.94;;;0.22;100.00
71043;BME280;58696;52.134;5.500;2024-01-15T08:43:12;100128.16;;;0.23;100.00
71043;BME280;58696;52.134;5.500;2024-01-15T08:45:41;100120.69;;;0.21;100.00
71043;BME280;58696;52.134;5.500;2024-01-15T08:48:08;100124.56;;;0.25;100.00
71043;BME280;58696;52.134;5.500;2024-01-15T08:50:37;100123.75;;;0.25;100.00
71043;BME280;58696;52.134;5.500;2024-01-15T08:53:06;100125.63;;;0.23;100.00
71043;BME280;58696;52.134;5.500;2024-01-15T08:55:35;100125.09;;;0.29;100.00
71043;BME280;58696;52.134;5.500;2024-01-15T08:58:02;100125.50;;;0.34;100.00
71043;BME280;58696;52.134;5.500;2024-01-15T09:00:35;100132.41;;;0.42;100.00
71043;BME280;58696;52.134;5.500;2024-01-15T09:03:04;100129.72;;;0.53;100.00
71043;BME280;58696;52.134;5.500;2024-01-15T09:05:33;100137.06;;;0.56;100.00
71043;BME280;58696;52.134;5.500;2024-01-15T09:08:00;100128.16;;;1.09;100.00
71043;BME280;58696;52.134;5.500;2024-01-15T09:10:26;100144.59;;;1.42;100.00
71043;BME280;58696;52.134;5.500;2024-01-15T09:12:55;100141.66;;;1.37;100.00
71043;BME280;58696;52.134;5.500;2024-01-15T09:15:24;100140.13;;;1.26;100.00
71043;BME280;58696;52.134;5.500;2024-01-15T09:17:51;100144.25;;;1.17;100.00
71043;BME280;58696;52.134;5.500;2024-01-15T09:20:17;100143.34;;;1.09;100.00
71043;BME280;58696;52.134;5.500;2024-01-15T09:22:47;100141.91;;;1.06;100.00
71043;BME280;58696;52.134;5.500;2024-01-15T09:25:13;100129.78;;;1.00;100.00
71043;BME280;58696;52.134;5.500;2024-01-15T09:27:40;100131.00;;;0.96;100.00
71043;BME280;58696;52.134;5.500;2024-01-15T09:30:07;100128.63;;;0.94;100.00
71043;BME280;58696;52.134;5.500;2024-01-15T09:32:35;100130.09;;;0.87;100.00
71043;BME280;58696;52.134;5.500;2024-01-15T09:35:02;100134.09;;;0.80;100.00
71043;BME280;58696;52.134;5.500;2024-01-15T09:37:30;100132.09;;;0.74;100.00
71043;BME280;58696;52.134;5.500;2024-01-15T09:40:13;100129.97;;;0.69;100.00
71043;BME280;58696;52.134;5.500;2024-01-15T09:42:44;100128.78;;;0.64;100.00
71043;BME280;58696;52.134;5.500;2024-01-15T09:45:11;100119.06;;;0.78;100.00
71043;BME280;58696;52.134;5.500;2024-01-15T09:47:40;100118.31;;;1.43;100.00
71043;BME280;58696;52.134;5.500;2024-01-15T09:50:13;100124.84;;;2.26;100.00
71043;BME280;58696;52.134;5.500;2024-01-15T09:52:40;100134.44;;;2.50;100.00
71043;BME280;58696;52.134;5.500;2024-01-15T09:55:08;100135.34;;;2.49;100.00
71043;BME280;58696;52.134;5.500;2024-01-15T09:57:39;100139.88;;;2.20;100.00
71043;BME280;58696;52.134;5.500;2024-01-15T10:00:07;100138.59;;;2.06;100.00
71043;BME280;58696;52.134;5.500;2024-01-15T10:02:37;100147.19;;;1.77;100.00
71043;BME280;58696;52.134;5.500;2024-01-15T10:05:04;100153.59;;;1.54;100.00
71043;BME280;58696;52.134;5.500;2024-01-15T10:07:34;100150.72;;;1.39;100.00
71043;BME280;58696;52.134;5.500;2024-01-15T10:10:02;100157.25;;;1.42;100.00
71043;BME280;58696;52.134;5.500;2024-01-15T10:12:35;100154.78;;;1.77;100.00
71043;BME280;58696;52.134;5.500;2024-01-15T10:15:02;100156.75;;;1.83;100.00
71043;BME280;58696;52.134;5.500;2024-01-15T10:17:31;100139.56;;;1.60;100.00
71043;BME280;58696;52.134;5.500;2024-01-15T10:20:00;100126.47;;;1.37;100.00
71043;BME280;58696;52.134;5.500;2024-01-15T10:22:30;100120.91;;;1.23;100.00
71043;BME280;58696;52.134;5.500;2024-01-15T10:24:57;100137.59;;;1.16;100.00
71043;BME280;58696;52.134;5.500;2024-01-15T10:27:23;100146.53;;;1.20;100.00
71043;BME280;58696;52.134;5.500;2024-01-15T10:29:52;100157.53;;;1.29;100.00
71043;BME280;58696;52.134;5.500;2024-01-15T10:32:20;100159.81;;;1.22;100.00
71043;BME280;58696;52.134;5.500;2024-01-15T10:34:54;100159.06;;;1.12;100.00
71043;BME280;58696;52.134;5.500;2024-01-15T10:37:26;100146.72;;;0.99;100.00
71043;BME280;58696;52.134;5.500;2024-01-15T10:39:55;100151.22;;;0.96;100.00
71043;BME280;58696;52.134;5.500;2024-01-15T10:42:22;100146.19;;;0.96;100.00
71043;BME280;58696;52.134;5.500;2024-01-15T10:44:51;100145.53;;;0.94;100.00
71043;BME280;58696;52.134;5.500;2024-01-15T10:47:18;100149.09;;;0.91;100.00
71043;BME280;58696;52.134;5.500;2024-01-15T10:49:45;100144.59;;;0.95;100.00
71043;BME280;58696;52.134;5.500;2024-01-15T10:52:15;100146.31;;;1.04;100.00
71043;BME280;58696;52.134;5.500;2024-01-15T10:54:43;100148.13;;;1.12;100.00
71043;BME280;58696;52.134;5.500;2024-01-15T10:57:11;100146.81;;;1.08;100.00
71043;BME280;58696;52.134;5.500;2024-01-15T10:59:40;100158.00;;;1.05;100.00
71043;BME280;58696;52.134;5.500;2024-01-15T11:02:09;100158.00;;;1.05;100.00
71043;BME280;58696;52.134;5.500;2024-01-15T11:04:37;100167.44;;;1.13;100.00
71043;BME280;58696;52.134;5.500;2024-01-15T11:07:05;100167.69;;;1.19;100.00
71043;BME280;58696;52.134;5.500;2024-01-15T11:09:32;100169.03;;;1.51;100.00
71043;BME280;58696;52.134;5.500;2024-01-15T11:12:13;100166.75;;;1.57;100.00
71043;BME280;58696;52.134;5.500;2024-01-15T11:14:49;100177.19;;;1.45;100.00
71043;BME280;58696;52.134;5.500;2024-01-15T11:17:17;100173.00;;;1.26;100.00
71043;BME280;58696;52.134;5.500;2024-01-15T11:19:48;100173.41;;;1.21;100.00
71043;BME280;58696;52.134;5.500;2024-01-15T11:25:18;100176.09;;;1.20;100.00
71043;BME280;58696;52.134;5.500;2024-01-15T11:27:49;100177.53;;;1.22;100.00
71043;BME280;58696;52.134;5.500;2024-01-15T11:30:26;100177.66;;;1.30;100.00
71043;BME280;58696;52.134;5.500;2024-01-15T11:32:58;100174.47;;;1.28;100.00
71043;BME280;58696;52.134;5.500;2024-01-15T11:35:47;100171.00;;;1.57;100.00
71043;BME280;58696;52.134;5.500;2024-01-15T11:38:26;100163.94;;;1.88;100.00
71043;BME280;58696;52.134;5.500;2024-01-15T11:40:54;100174.63;;;2.09;100.00
71043;BME280;58696;52.134;5.500;2024-01-15T11:43:24;100175.28;;;2.29;100.00
71043;BME280;58696;52.134;5.500;2024-01-15T11:45:55;100169.97;;;2.23;100.00
71043;BME280;58696;52.134;5.500;2024-01-15T11:48:22;100171.28;;;2.09;100.00
71043;BME280;58696;52.134;5.500;2024-01-15T11:50:56;100169.97;;;2.05;100.00
71043;BME280;58696;52.134;5.500;2024-01-15T11:53:34;100166.78;;;2.21;100.00
71043;BME280;58696;52.134;5.500;2024-01-15T11:56:13;100181.63;;;2.16;100.00
71043;BME280;58696;52.134;5.500;2024-01-15T11:58:45;100172.44;;;2.15;100.00
71043;BME280;58696;52.134;5.500;2024-01-15T12:01:12;100174.97;;;2.32;100.00
71043;BME280;58696;52.134;5.500;2024-01-15T12:03:41;100172.59;;;2.49;100.00
71043;BME280;58696;52.134;5.500;2024-01-15T12:06:08;100174.91;;;2.42;100.00
71043;BME280;58696;52.134;5.500;2024-01-15T12:08:36;100181.22;;;2.38;100.00
71043;BME280;58696;52.134;5.500;2024-01-15T12:11:13;100181.94;;;2.30;100.00
71043;BME280;58696;52.134;5.500;2024-01-15T12:13:40;100194.03;;;2.19;100.00
71043;BME280;58696;52.134;5.500;2024-01-15T12:16:07;100206.66;;;2.01;100.00
71043;BME280;58696;52.134;5.500;2024-01-15T12:18:34;100216.63;;;1.84;100.00
71043;BME280;58696;52.134;5.500;2024-01-15T12:21:05;100218.28;;;1.76;100.00
71043;BME280;58696;52.134;5.500;2024-01-15T12:23:33;100219.78;;;1.69;100.00
71043;BME280;58696;52.134;5.500;2024-01-15T12:26:00;100231.53;;;1.60;100.00
71043;BME280;58696;52.134;5.500;2024-01-15T12:28:27;100214.84;;;1.57;100.00
71043;BME280;58696;52.134;5.500;2024-01-15T12:30:55;100210.47;;;1.60;100.00
71043;BME280;58696;52.134;5.500;2024-01-15T12:33:22;100224.88;;;1.59;100.00
71043;BME280;58696;52.134;5.500;2024-01-15T12:35:49;100223.81;;;1.52;100.00
71043;BME280;58696;52.134;5.500;2024-01-15T12:38:18;100235.03;;;1.49;100.00
71043;BME280;58696;52.134;5.500;2024-01-15T12:40:45;100238.09;;;1.53;100.00
71043;BME280;58696;52.134;5.500;2024-01-15T12:43:15;100246.88;;;1.58;100.00
71043;BME280;58696;52.134;5.500;2024-01-15T12:45:43;100249.91;;;1.62;100.00
71043;BME280;58696;52.134;5.500;2024-01-15T12:48:12;100230.34;;;1.54;100.00
71043;BME280;58696;52.134;5.500;2024-01-15T12:50:42;100221.44;;;1.41;100.00
71043;BME280;58696;52.134;5.500;2024-01-15T12:53:12;100218.16;;;1.30;100.00
71043;BME280;58696;52.134;5.500;2024-01-15T12:55:43;100228.81;;;1.24;100.00
71043;BME280;58696;52.134;5.500;2024-01-15T12:58:10;100226.56;;;1.21;100.00